Chesterland, Ohio
Current Conditions -  °F | °C
As of 8:45 PM on Monday 24 Nov 2014 (Local Time) from KCGF Reporting Station
Overcast Overcast  
Wind Chill: 38°   Ceiling: 3000
Heat Index: 46°   Visibility: 10mi
Dew Point: 34°   Wind: 23mph
Humidity: 62%   Direction: 250°WSW
Pressure: 29.71"   Gusts: 35mph
Location:  41.52°N, 81.34°W
Report Text: KCGF 250145Z 25020G30KT 10SM OVC030 08/01 A2971
Loading
Personal Weather Stations






























Interactive Weather Map New forecast layout! Learn more

10-Day Weather Forecast

Advertisements
Track Severe Weather on mobile